createdAt,value
2023-04-07T00:03:07.823Z,99.90
2023-04-07T00:09:13.236Z,99.90
2023-04-07T00:15:15.141Z,99.90
2023-04-07T00:21:17.041Z,99.90
2023-04-07T00:27:18.939Z,99.90
2023-04-07T00:33:20.887Z,99.90
2023-04-07T00:39:22.787Z,99.90
2023-04-07T00:45:24.761Z,99.90
2023-04-07T00:51:27.182Z,99.90
2023-04-07T00:57:29.098Z,99.90
2023-04-07T01:04:05.194Z,99.90
2023-04-07T01:10:13.703Z,99.90
2023-04-07T01:16:35.259Z,99.90
2023-04-07T01:22:53.384Z,99.90
2023-04-07T01:29:22.350Z,99.90
2023-04-07T01:35:25.467Z,99.90
2023-04-07T01:41:28.599Z,99.90
2023-04-07T01:47:32.775Z,99.90
2023-04-07T01:53:37.897Z,99.90
2023-04-07T01:59:39.786Z,99.90
2023-04-07T02:05:42.600Z,99.90
2023-04-07T02:11:46.112Z,99.90
2023-04-07T02:17:54.675Z,99.90
2023-04-07T02:23:57.034Z,99.90
2023-04-07T02:29:59.007Z,99.90
2023-04-07T02:36:01.016Z,99.90
2023-04-07T02:42:02.923Z,99.90
2023-04-07T02:48:05.126Z,99.90
2023-04-07T02:54:07.010Z,99.90
2023-04-07T03:00:10.172Z,99.90
2023-04-07T03:06:12.078Z,99.90
2023-04-07T03:12:14.147Z,99.90
2023-04-07T03:18:16.067Z,99.90
2023-04-07T03:24:18.452Z,99.90
2023-04-07T03:30:20.785Z,99.90
2023-04-07T03:36:22.798Z,99.90
2023-04-07T03:42:24.754Z,99.90
2023-04-07T03:48:28.677Z,99.90
2023-04-07T03:54:31.506Z,99.90
2023-04-07T04:00:33.694Z,99.90
2023-04-07T04:06:35.809Z,99.90
2023-04-07T04:12:37.795Z,99.90
2023-04-07T04:18:39.709Z,99.90
2023-04-07T04:24:41.981Z,99.90
2023-04-07T04:30:43.904Z,99.90
2023-04-07T04:36:45.904Z,99.90
2023-04-07T04:42:47.816Z,99.90
2023-04-07T04:48:49.733Z,99.90
2023-04-07T04:54:51.657Z,99.90
2023-04-07T05:00:58.346Z,99.90
2023-04-07T05:07:00.546Z,99.90
2023-04-07T05:13:02.472Z,99.90
2023-04-07T05:19:04.424Z,99.90
2023-04-07T05:25:07.093Z,99.90
2023-04-07T05:31:09.472Z,99.90
2023-04-07T05:37:11.411Z,99.90
2023-04-07T05:43:13.298Z,99.90
2023-04-07T05:49:20.214Z,99.90
2023-04-07T05:55:22.838Z,99.90
2023-04-07T06:01:26.339Z,99.90
2023-04-07T06:07:28.873Z,99.90
2023-04-07T06:13:30.790Z,99.90
2023-04-07T06:19:33.345Z,99.90
2023-04-07T06:25:35.244Z,99.90
2023-04-07T06:31:37.531Z,99.90
2023-04-07T06:37:39.456Z,99.90
2023-04-07T06:43:41.512Z,99.90
2023-04-07T06:49:43.437Z,99.90
2023-04-07T06:55:45.478Z,99.90
2023-04-07T07:01:47.873Z,99.90
2023-04-07T07:07:51.674Z,99.90
2023-04-07T07:13:53.590Z,99.90
2023-04-07T07:19:55.624Z,99.90
2023-04-07T07:25:57.733Z,99.90
2023-04-07T07:31:59.628Z,99.90
2023-04-07T07:38:01.604Z,99.90
2023-04-07T07:44:03.530Z,99.90
2023-04-07T07:50:07.025Z,99.90
2023-04-07T07:56:08.939Z,99.90
2023-04-07T08:02:11.017Z,99.90
2023-04-07T08:08:13.097Z,99.90
2023-04-07T08:14:15.963Z,99.90
2023-04-07T08:20:17.944Z,99.90
2023-04-07T08:26:21.196Z,99.90
2023-04-07T08:32:23.153Z,99.90
2023-04-07T08:38:25.120Z,99.90
2023-04-07T08:44:29.875Z,99.90
2023-04-07T08:50:32.649Z,99.90
2023-04-07T08:56:34.753Z,99.90
2023-04-07T09:02:45.878Z,99.90
2023-04-07T09:08:47.859Z,99.90
2023-04-07T09:14:49.770Z,99.90
2023-04-07T09:21:04.024Z,99.90
2023-04-07T09:27:35.291Z,99.90
2023-04-07T09:33:37.798Z,99.90
2023-04-07T09:39:51.960Z,99.90
2023-04-07T09:46:11.611Z,99.90
2023-04-07T09:52:13.513Z,95.50
2023-04-07T09:58:16.820Z,98.60
2023-04-07T10:04:19.276Z,93.00
2023-04-07T10:10:21.335Z,90.30
2023-04-07T10:16:24.005Z,80.10
2023-04-07T10:22:28.096Z,77.60
2023-04-07T10:28:31.996Z,68.80
2023-04-07T10:34:54.755Z,72.20
2023-04-07T10:40:56.715Z,70.80
2023-04-07T10:47:01.570Z,73.60
2023-04-07T10:53:16.515Z,71.60
2023-04-07T10:59:19.381Z,73.20
2023-04-07T11:05:23.088Z,70.30
2023-04-07T11:11:42.453Z,68.10
2023-04-07T11:17:44.474Z,67.80
2023-04-07T11:23:47.832Z,62.60
2023-04-07T11:29:50.473Z,61.00
2023-04-07T11:36:01.856Z,61.00
2023-04-07T11:42:03.876Z,60.10
2023-04-07T11:48:06.124Z,60.00
2023-04-07T11:54:08.122Z,58.20
2023-04-07T12:00:12.799Z,60.80
2023-04-07T12:06:31.881Z,57.60
2023-04-07T12:12:33.771Z,55.10
2023-04-07T12:18:36.514Z,52.90
2023-04-07T12:24:39.369Z,53.40
2023-04-07T12:30:42.220Z,49.70
2023-04-07T12:36:44.734Z,48.80
2023-04-07T12:42:46.764Z,45.10
2023-04-07T12:48:49.330Z,44.00
2023-04-07T12:54:51.368Z,44.10
2023-04-07T13:00:53.687Z,45.20
2023-04-07T13:06:55.684Z,44.30
2023-04-07T13:12:57.603Z,45.40
2023-04-07T13:19:00.438Z,41.30
2023-04-07T13:25:02.458Z,42.80
2023-04-07T13:31:04.579Z,40.70
2023-04-07T13:37:07.049Z,41.60
2023-04-07T13:43:11.476Z,38.90
2023-04-07T13:49:14.926Z,41.60
2023-04-07T13:55:16.951Z,40.20
2023-04-07T14:01:18.938Z,39.90
2023-04-07T14:07:21.733Z,39.60
2023-04-07T14:13:23.706Z,41.30
2023-04-07T14:19:25.706Z,40.50
2023-04-07T14:25:27.724Z,42.00
2023-04-07T14:31:29.648Z,40.30
2023-04-07T14:37:31.560Z,40.90
2023-04-07T14:43:33.526Z,39.00
2023-04-07T14:49:35.440Z,40.20
2023-04-07T14:55:37.369Z,43.20
2023-04-07T15:01:39.910Z,45.40
2023-04-07T15:07:41.856Z,44.40
2023-04-07T15:13:43.748Z,45.60
2023-04-07T15:19:45.673Z,45.10
2023-04-07T15:25:50.040Z,46.40
2023-04-07T15:31:52.029Z,48.10
2023-04-07T15:37:54.113Z,48.00
2023-04-07T15:43:56.596Z,47.30
2023-04-07T15:49:58.468Z,45.70
2023-04-07T15:56:00.385Z,47.60
2023-04-07T16:02:02.457Z,47.50
2023-04-07T16:08:04.513Z,48.00
2023-04-07T16:14:08.954Z,48.70
2023-04-07T16:20:14.541Z,49.10
2023-04-07T16:26:16.526Z,47.70
2023-04-07T16:32:18.396Z,49.30
2023-04-07T16:38:20.322Z,47.90
2023-04-07T16:44:22.973Z,48.50
2023-04-07T16:50:24.956Z,49.50
2023-04-07T16:56:26.881Z,48.00
2023-04-07T17:02:28.917Z,49.80
2023-04-07T17:08:35.940Z,50.10
2023-04-07T17:14:37.885Z,49.70
2023-04-07T17:20:39.756Z,50.40
2023-04-07T17:26:48.446Z,51.00
2023-04-07T17:32:50.873Z,52.10
2023-04-07T17:38:52.904Z,52.90
2023-04-07T17:44:54.891Z,53.90
2023-04-07T17:50:58.461Z,55.60
2023-04-07T17:57:01.039Z,57.30
2023-04-07T18:03:03.924Z,59.00
2023-04-07T18:09:05.985Z,61.60
2023-04-07T18:15:09.399Z,65.30
2023-04-07T18:21:11.320Z,68.60
2023-04-07T18:27:13.301Z,71.30
2023-04-07T18:33:15.473Z,76.60
2023-04-07T18:39:17.539Z,81.80
2023-04-07T18:45:19.535Z,92.10
2023-04-07T18:51:21.866Z,98.00
2023-04-07T18:57:23.799Z,99.90
2023-04-07T19:03:26.500Z,99.90
2023-04-07T19:09:29.560Z,99.90
2023-04-07T19:15:34.248Z,99.90
2023-04-07T19:21:36.471Z,99.90
2023-04-07T19:27:39.505Z,99.90
2023-04-07T19:33:42.618Z,99.90
2023-04-07T19:40:01.790Z,99.90
2023-04-07T19:46:06.275Z,99.90
2023-04-07T19:52:08.305Z,99.90
2023-04-07T19:58:11.089Z,99.90
2023-04-07T20:04:14.180Z,99.90
2023-04-07T20:10:16.182Z,99.90
2023-04-07T20:16:18.191Z,99.90
2023-04-07T20:22:20.405Z,99.90
2023-04-07T20:28:22.901Z,99.90
2023-04-07T20:34:24.867Z,99.90
2023-04-07T20:40:27.628Z,99.90
2023-04-07T20:46:30.090Z,99.90
2023-04-07T20:52:32.047Z,99.90
2023-04-07T20:58:34.025Z,99.90
2023-04-07T21:04:36.895Z,99.90
2023-04-07T21:10:38.803Z,99.90
2023-04-07T21:16:40.769Z,99.90
2023-04-07T21:22:42.811Z,99.90
2023-04-07T21:28:44.731Z,99.90
2023-04-07T21:34:46.687Z,99.90
2023-04-07T21:40:48.668Z,99.90
2023-04-07T21:46:50.629Z,99.90
2023-04-07T21:52:53.798Z,99.90
2023-04-07T21:58:55.825Z,99.90
2023-04-07T22:04:57.878Z,99.90
2023-04-07T22:10:59.756Z,99.90
2023-04-07T22:17:01.723Z,99.90
2023-04-07T22:23:03.636Z,99.90
2023-04-07T22:29:05.527Z,99.90
2023-04-07T22:35:07.853Z,99.90
2023-04-07T22:41:09.772Z,99.90
2023-04-07T22:47:11.848Z,99.90
2023-04-07T22:53:13.907Z,99.90
2023-04-07T22:59:15.843Z,99.90
2023-04-07T23:05:17.819Z,99.90
2023-04-07T23:11:20.970Z,99.90
2023-04-07T23:17:24.054Z,99.90
2023-04-07T23:23:26.047Z,99.90
2023-04-07T23:29:27.997Z,99.90
2023-04-07T23:35:29.927Z,99.90
2023-04-07T23:41:32.138Z,99.90
2023-04-07T23:47:34.016Z,99.90
2023-04-07T23:53:35.950Z,99.90
2023-04-07T23:59:37.881Z,99.90
